Nearby METAR Reports

 

KTKI - Mckinney, Texas, USA
Distance from station: NE 9mi, 14km
Observations as of: 12/16/2018 7:53am
Clear
Clear
 Wind from calm
Wind: Calm
Temperature: 37°F , 3°C
Dew Point: 36°F , 2°C
Humidity: 93%
Barometer: 30.24 inHg , 1024 hPa
Clouds: Clear
Visibility: 10 miles , 16 km
2018/12/16 13:53 KTKI 161353Z 00000KT 10SM CLR 03/02 A3024 RMK AO2 SLP261 T00330017 $
KADS - Dallas/Addison, Texas, USA
Distance from station: SW 11mi, 18km
Observations as of: 12/16/2018 7:47am
Clear
Clear
 Wind from S
Wind: S 3 mph , 6 km/h
Temperature: 43°F , 6°C
Dew Point: 30°F , -1°C
Humidity: 61%
Barometer: 30.25 inHg , 1024.4 hPa
Clouds: Clear
Visibility: 10 miles , 16 km
2018/12/16 13:47 KADS 161347Z 18003KT 10SM SKC 06/M01 A3025
 
KF46 - Rockwall, Texas, USA
Distance from station: SE 19mi, 30km
Observations as of: 12/16/2018 8:35am
Clear
Clear
 Wind from S
Wind: S 3 mph , 6 km/h
Temperature: 46°F , 8°C
Dew Point: 36°F , 2°C
Humidity: 66%
Barometer: 30.27 inHg , 1025.1 hPa
Clouds: Clear
Visibility: 10 miles , 16 km
2018/12/16 14:35 KF46 161435Z AUTO 18003KT 10SM CLR 08/02 A3027 RMK AO2 T00810020
KDAL - Dallas/Love Fld, Texas, USA
Distance from station: SSW 19mi, 31km
Observations as of: 12/16/2018 7:53am
Mostly cloudy
Mostly cloudy
 Wind from S
Wind: S 5 mph , 7 km/h
Temperature: 41°F , 5°C
Wind Chill: 38°F , 3°C
Dew Point: 32°F , 0°C
Humidity: 70%
Barometer: 30.25 inHg , 1024.4 hPa
Clouds: Mostly cloudy
Visibility: 10 miles , 16 km
Cloud details: Mostly cloudy 20000 ft
Mostly cloudy 23000 ft
2018/12/16 13:53 KDAL 161353Z 17004KT 10SM BKN200 BKN230 05/00 A3025 RMK AO2 SLP244 T00500000 $
 
KDFW - Dallas/Ft Worth, Texas, USA
Distance from station: SW 23mi, 37km
Observations as of: 12/16/2018 7:53am
Mostly cloudy
Mostly cloudy
 Wind from S
Wind: S 5 mph , 7 km/h
Temperature: 41°F , 5°C
Wind Chill: 38°F , 3°C
Dew Point: 30°F , -1°C
Humidity: 66%
Barometer: 30.23 inHg , 1023.7 hPa
Clouds: Mostly cloudy
Visibility: 10 miles , 16 km
Cloud details: Mostly cloudy 21000 ft
Mostly cloudy 25000 ft
2018/12/16 13:53 KDFW 161353Z 18004KT 10SM BKN210 BKN250 05/M01 A3023 RMK AO2 SLP234 T00501006
KHQZ - Mesquite, Texas, USA
Distance from station: SSE 26mi, 41km
Observations as of: 12/16/2018 7:50am
Clear
Clear
 Wind from S
Wind: S 3 mph , 6 km/h
Temperature: 37°F , 3°C
Dew Point: 36°F , 2°C
Humidity: 93%
Barometer: 30.27 inHg , 1025.1 hPa
Clouds: Clear
Visibility: 10 miles , 16 km
2018/12/16 13:50 KHQZ 161350Z 17003KT 10SM CLR 03/02 A3027
 
KDTO - Denton, Texas, USA
Distance from station: WNW 30mi, 48km
Observations as of: 12/16/2018 7:53am
Clear
Clear
 Wind from SE
Wind: SE 8 mph , 13 km/h
Temperature: 39°F , 4°C
Wind Chill: 33°F , 1°C
Dew Point: 34°F , 1°C
Humidity: 81%
Barometer: 30.23 inHg , 1023.7 hPa
Clouds: Clear
Visibility: 10 miles , 16 km
2018/12/16 13:53 KDTO 161353Z 13007KT 10SM CLR 04/01 A3023 RMK AO2 SLP237 T00440006
KRBD - Dallas/Redbird, Texas, USA
Distance from station: SSW 30mi, 49km
Observations as of: 12/16/2018 7:53am
Clear
Clear
 Wind from S
Wind: S 7 mph , 11 km/h
Temperature: 39°F , 4°C
Wind Chill: 34°F , 1°C
Dew Point: 27°F , -3°C
Humidity: 61%
Barometer: 30.25 inHg , 1024.4 hPa
Clouds: Clear
Visibility: 10 miles , 16 km
2018/12/16 13:53 KRBD 161353Z 17006KT 10SM CLR 04/M03 A3025 RMK AO2 SLP243 T00441028 PNO $
 
KGPM - Grand Prairie, Texas, USA
Distance from station: SW 34mi, 55km
Observations as of: 12/16/2018 7:50am
Clear
Clear
 Wind from calm
Wind: Calm
Temperature: 41°F , 5°C
Dew Point: 28°F , -2°C
Humidity: 61%
Barometer: 30.27 inHg , 1025.1 hPa
Clouds: Clear
Visibility: 10 miles , 16 km
2018/12/16 13:50 KGPM 161350Z 00000KT 10SM SKC 05/M02 A3027
KLNC - Lancaster, Texas, USA
Distance from station: S 35mi, 57km
Observations as of: 12/16/2018 8:35am
Clear
Clear
 Wind from calm
Wind: Calm
Temperature: 37°F , 3°C
Dew Point: 34°F , 1°C
Humidity: 87%
Barometer: 30.27 inHg , 1025.1 hPa
Clouds: Clear
Visibility: 10 miles , 16 km
2018/12/16 14:35 KLNC 161435Z AUTO 00000KT 10SM CLR 03/01 A3027 RMK AO2 T00330012
 
KTRL - Terrell, Texas, USA
Distance from station: SE 36mi, 58km
Observations as of: 12/16/2018 7:53am
Clear
Clear
 Wind from calm
Wind: Calm
Temperature: 39°F , 4°C
Dew Point: 36°F , 2°C
Humidity: 87%
Barometer: 30.27 inHg , 1025.1 hPa
Clouds: Clear
Visibility: 10 miles , 16 km
2018/12/16 13:53 KTRL 161353Z AUTO 00000KT 10SM CLR 04/02 A3027 RMK AO2 SLP250 T00390017
KGVT - Greenville/Major, Texas, USA
Distance from station: E 37mi, 59km
Observations as of: 12/16/2018 8:35am
Clear
Clear
 Wind from calm
Wind: Calm
Temperature: 43°F , 6°C
Dew Point: 41°F , 5°C
Humidity: 93%
Barometer: 30.27 inHg , 1025.1 hPa
Clouds: Clear
Visibility: 10 miles , 16 km
2018/12/16 14:35 KGVT 161435Z AUTO 00000KT 10SM CLR 06/05 A3027 RMK AO2
 
KAFW - Ft Worth/Allianc, Texas, USA
Distance from station: WSW 37mi, 60km
Observations as of: 12/16/2018 7:53am
Mostly cloudy
Mostly cloudy
 Wind from S
Wind: S 7 mph , 11 km/h
Temperature: 43°F , 6°C
Wind Chill: 39°F , 4°C
Dew Point: 32°F , 0°C
Humidity: 66%
Barometer: 30.23 inHg , 1023.7 hPa
Clouds: Mostly cloudy
Visibility: 10 miles , 16 km
Cloud details: Mostly cloudy 21000 ft
Mostly cloudy 30000 ft
2018/12/16 13:53 KAFW 161353Z 18006KT 10SM BKN210 BKN300 06/00 A3023 RMK AO2 SLP241 T00610000
KGKY - Arlington, Texas, USA
Distance from station: SW 38mi, 61km
Observations as of: 12/16/2018 7:53am
Clear
Clear
 Wind from SE
Wind: SE 3 mph , 6 km/h
Temperature: 36°F , 2°C
Dew Point: 34°F , 1°C
Humidity: 93%
Barometer: 30.25 inHg , 1024.4 hPa
Clouds: Clear
Visibility: 10 miles , 16 km
2018/12/16 13:53 KGKY 161353Z 13003KT 10SM CLR 02/01 A3025 RMK AO2 SLP245 T00220006 $
 
KFTW - Fort Worth, Texas, USA
Distance from station: WSW 43mi, 69km
Observations as of: 12/16/2018 7:53am
Clear
Clear
 Wind from SE
Wind: SE 7 mph , 11 km/h
Temperature: 43°F , 6°C
Wind Chill: 39°F , 4°C
Dew Point: 34°F , 1°C
Humidity: 71%
Barometer: 30.23 inHg , 1023.7 hPa
Clouds: Clear
Visibility: 10 miles , 16 km
2018/12/16 13:53 KFTW 161353Z AUTO 14006KT 10SM CLR 06/01 A3023 RMK AO2 SLP239 T00560006
KGYI - Sherman/Denison, Texas, USA
Distance from station: N 43mi, 69km
Observations as of: 12/16/2018 8:00am
Clear
Clear
 Wind from SSE
Wind: SSE 8 mph , 13 km/h
Temperature: 41°F , 5°C
Wind Chill: 36°F , 2°C
Dew Point: 32°F , 0°C
Humidity: 70%
Barometer: 30.22 inHg , 1023.4 hPa
Clouds: Clear
Visibility: 10 miles , 16 km
2018/12/16 14:00 KGYI 161400Z 16007KT 10SM CLR 05/00 A3022
 
KJWY - Midlothian/Wax, Texas, USA
Distance from station: SSW 46mi, 75km
Observations as of: 12/16/2018 8:35am
Clear
Clear
 Wind from SSE
Wind: SSE 3 mph , 6 km/h
Temperature: 45°F , 7°C
Dew Point: 32°F , 0°C
Humidity: 61%
Barometer: 30.28 inHg , 1025.4 hPa
Clouds: Clear
Visibility: 10 miles , 16 km
2018/12/16 14:35 KJWY 161435Z AUTO 16003KT 10SM CLR 07/00 A3028 RMK AO2 T00690002
KGLE - Gainesville, Texas, USA
Distance from station: NW 48mi, 77km
Observations as of: 12/16/2018 8:35am
Clear
Clear
 Wind from calm
Wind: Calm
Temperature: 43°F , 6°C
Dew Point: 34°F , 1°C
Humidity: 71%
Barometer: 30.25 inHg , 1024.4 hPa
Clouds: Clear
Visibility: 10 miles , 16 km
2018/12/16 14:35 KGLE 161435Z AUTO 00000KT 10SM CLR 06/01 A3025 RMK AO2 T00550007
 
KNFW - Fort Worth Nas, Texas, USA
Distance from station: WSW 48mi, 77km
Observations as of: 12/16/2018 7:52am
Clear
Clear
 Wind from E
Wind: E 3 mph , 6 km/h
Temperature: 43°F , 6°C
Dew Point: 34°F , 1°C
Humidity: 71%
Barometer: 30.24 inHg , 1024 hPa
Clouds: Clear
Visibility: 10 miles , 16 km
2018/12/16 13:52 KNFW 161352Z 08003KT 10SM CLR 06/01 A3024 RMK AO2 SLP222 T00560006 VISNO N $